SWR388 HECA-LSGG
Flight info
| Callsign | SWR388 |
|---|---|
| Flight time | 3h 59m |
| Altitude | 40000 |
| Route | CVO L617 TANSA DCT KOR DCT TUMBO DCT VAKSU DCT BAXON DCT SRN DCT OMETO DCT TERSI DCT AOSTA L615 BANKO |
| Aircraft | A333/H-SDE3GHIJ2J3J5M1RVWXY/LB2D1 |
Departure
| Time | 2026-05-05 19:21 |
|---|---|
| Airport | Cairo International Airport (HECA) |
Arrival
| Time | 2026-05-05 23:20 |
|---|---|
| Airport | Geneva International Airport (LSGG) |
| Time | Latitude | Longitude | Altitude | Speed | Heading |
|---|---|---|---|---|---|
| 2026-05-05 19:08 | 30.11030 | 31.40517 | 369 ft | 0 kts | 228° |
| 2026-05-05 19:12 | 30.11035 | 31.40523 | 369 ft | 3 kts | 228° |
| 2026-05-05 19:12 | 30.11048 | 31.40540 | 365 ft | 3 kts | 228° |
| 2026-05-05 19:12 | 30.11062 | 31.40555 | 367 ft | 3 kts | 197° |
| 2026-05-05 19:12 | 30.11082 | 31.40556 | 364 ft | 3 kts | 148° |
| 2026-05-05 19:13 | 30.11089 | 31.40551 | 367 ft | 0 kts | 136° |
| 2026-05-05 19:14 | 30.11079 | 31.40562 | 367 ft | 6 kts | 138° |
| 2026-05-05 19:15 | 30.11072 | 31.40569 | 365 ft | 8 kts | 139° |
| 2026-05-05 19:15 | 30.11054 | 31.40586 | 367 ft | 10 kts | 140° |
| 2026-05-05 19:15 | 30.10994 | 31.40593 | 372 ft | 10 kts | 199° |
| 2026-05-05 19:16 | 30.10917 | 31.40526 | 372 ft | 18 kts | 224° |
| 2026-05-05 19:16 | 30.10813 | 31.40397 | 373 ft | 25 kts | 224° |
| 2026-05-05 19:16 | 30.10647 | 31.40293 | 375 ft | 29 kts | 209° |
| 2026-05-05 19:16 | 30.10485 | 31.40125 | 376 ft | 33 kts | 208° |
| 2026-05-05 19:17 | 30.10311 | 31.40214 | 391 ft | 27 kts | 139° |
| 2026-05-05 19:17 | 30.10181 | 31.40332 | 392 ft | 20 kts | 167° |
| 2026-05-05 19:17 | 30.10099 | 31.40414 | 396 ft | 14 kts | 131° |
| 2026-05-05 19:17 | 30.10028 | 31.40505 | 408 ft | 17 kts | 133° |
| 2026-05-05 19:18 | 30.09937 | 31.40608 | 409 ft | 19 kts | 133° |
| 2026-05-05 19:18 | 30.09829 | 31.40714 | 412 ft | 22 kts | 139° |
| 2026-05-05 19:18 | 30.09794 | 31.40879 | 432 ft | 24 kts | 81° |
| 2026-05-05 19:18 | 30.09828 | 31.41082 | 427 ft | 28 kts | 81° |
| 2026-05-05 19:19 | 30.09864 | 31.41311 | 440 ft | 30 kts | 79° |
| 2026-05-05 19:19 | 30.09906 | 31.41560 | 450 ft | 33 kts | 77° |
| 2026-05-05 19:19 | 30.09852 | 31.41783 | 460 ft | 29 kts | 136° |
| 2026-05-05 19:19 | 30.09768 | 31.41958 | 462 ft | 25 kts | 66° |
| 2026-05-05 19:20 | 30.09871 | 31.42153 | 463 ft | 44 kts | 68° |
| 2026-05-05 19:20 | 30.10116 | 31.42686 | 471 ft | 107 kts | 53° |
| 2026-05-05 19:20 | 30.10783 | 31.43453 | 481 ft | 163 kts | 39° |
| 2026-05-05 19:20 | 30.11637 | 31.44484 | 897 ft | 194 kts | 51° |
| 2026-05-05 19:21 | 30.12583 | 31.45764 | 1425 ft | 222 kts | 50° |
| 2026-05-05 19:21 | 30.13465 | 31.47220 | 2332 ft | 211 kts | 72° |
| 2026-05-05 19:21 | 30.13354 | 31.48730 | 3715 ft | 182 kts | 123° |
| 2026-05-05 19:21 | 30.12441 | 31.49693 | 4508 ft | 184 kts | 155° |
| 2026-05-05 19:22 | 30.11192 | 31.49805 | 5184 ft | 189 kts | 202° |
| 2026-05-05 19:22 | 30.10142 | 31.48808 | 5642 ft | 209 kts | 232° |
| 2026-05-05 19:22 | 30.09057 | 31.47552 | 5907 ft | 242 kts | 213° |
| 2026-05-05 19:22 | 30.07367 | 31.47037 | 6309 ft | 265 kts | 177° |
| 2026-05-05 19:23 | 30.05571 | 31.47609 | 7091 ft | 272 kts | 161° |
| 2026-05-05 19:23 | 30.03711 | 31.47983 | 7984 ft | 275 kts | 188° |
| 2026-05-05 19:23 | 30.01964 | 31.47133 | 8810 ft | 279 kts | 222° |
| 2026-05-05 19:23 | 30.00914 | 31.45274 | 9658 ft | 282 kts | 255° |
| 2026-05-05 19:24 | 30.00792 | 31.43003 | 10400 ft | 292 kts | 279° |
| 2026-05-05 19:24 | 30.01498 | 31.40735 | 10794 ft | 313 kts | 303° |
| 2026-05-05 19:24 | 30.03080 | 31.38920 | 11157 ft | 333 kts | 329° |
| 2026-05-05 19:24 | 30.05302 | 31.38022 | 11734 ft | 346 kts | 353° |
| 2026-05-05 19:25 | 30.07700 | 31.38226 | 12489 ft | 352 kts | 16° |
| 2026-05-05 19:25 | 30.10064 | 31.39033 | 13245 ft | 357 kts | 15° |
| 2026-05-05 19:25 | 30.12485 | 31.39739 | 14027 ft | 361 kts | 13° |
| 2026-05-05 19:25 | 30.14979 | 31.40173 | 14790 ft | 364 kts | 4° |
| 2026-05-05 19:26 | 30.17515 | 31.39960 | 15520 ft | 368 kts | 346° |
| 2026-05-05 19:26 | 30.19874 | 31.38806 | 16270 ft | 371 kts | 329° |
| 2026-05-05 19:26 | 30.21914 | 31.36976 | 16992 ft | 374 kts | 316° |
| 2026-05-05 19:26 | 30.23743 | 31.34815 | 17705 ft | 378 kts | 316° |
| 2026-05-05 19:27 | 30.25493 | 31.32522 | 18328 ft | 382 kts | 307° |
| 2026-05-05 19:27 | 30.26890 | 31.29894 | 18966 ft | 386 kts | 298° |
| 2026-05-05 19:27 | 30.28013 | 31.27060 | 19599 ft | 389 kts | 292° |
| 2026-05-05 19:27 | 30.28940 | 31.24104 | 20205 ft | 393 kts | 289° |
| 2026-05-05 19:28 | 30.29909 | 31.21154 | 20789 ft | 396 kts | 300° |
| 2026-05-05 19:28 | 30.31419 | 31.18473 | 21327 ft | 400 kts | 305° |
| 2026-05-05 19:28 | 30.32969 | 31.15780 | 21846 ft | 404 kts | 303° |
| 2026-05-05 19:28 | 30.34536 | 31.13071 | 22417 ft | 407 kts | 306° |
| 2026-05-05 19:29 | 30.36270 | 31.10467 | 22926 ft | 410 kts | 311° |
| 2026-05-05 19:29 | 30.38198 | 31.08071 | 23416 ft | 413 kts | 315° |
| 2026-05-05 19:29 | 30.40244 | 31.05707 | 23889 ft | 417 kts | 316° |
| 2026-05-05 19:29 | 30.42344 | 31.03372 | 24361 ft | 420 kts | 317° |
| 2026-05-05 19:30 | 30.44482 | 31.01048 | 24820 ft | 423 kts | 317° |
| 2026-05-05 19:30 | 30.46647 | 30.98716 | 25259 ft | 426 kts | 317° |
| 2026-05-05 19:30 | 30.48827 | 30.96372 | 25704 ft | 429 kts | 318° |
| 2026-05-05 19:30 | 30.51019 | 30.94013 | 26133 ft | 431 kts | 317° |
| 2026-05-05 19:31 | 30.53226 | 30.91632 | 26558 ft | 434 kts | 317° |
| 2026-05-05 19:31 | 30.55444 | 30.89237 | 26970 ft | 437 kts | 317° |
| 2026-05-05 19:31 | 30.57676 | 30.86820 | 27360 ft | 440 kts | 317° |
| 2026-05-05 19:31 | 30.59918 | 30.84387 | 27763 ft | 442 kts | 317° |
| 2026-05-05 19:32 | 30.62173 | 30.81934 | 28143 ft | 445 kts | 317° |
| 2026-05-05 19:32 | 30.64410 | 30.79496 | 28508 ft | 448 kts | 317° |
| 2026-05-05 19:32 | 30.66688 | 30.77012 | 28894 ft | 450 kts | 317° |
| 2026-05-05 19:32 | 30.68976 | 30.74516 | 29258 ft | 453 kts | 317° |
| 2026-05-05 19:33 | 30.71280 | 30.72001 | 29615 ft | 455 kts | 317° |
| 2026-05-05 19:33 | 30.73594 | 30.69475 | 29965 ft | 458 kts | 317° |
| 2026-05-05 19:33 | 30.75931 | 30.66924 | 30310 ft | 460 kts | 317° |
| 2026-05-05 19:33 | 30.78271 | 30.64368 | 30647 ft | 463 kts | 317° |
| 2026-05-05 19:34 | 30.80627 | 30.61792 | 30976 ft | 465 kts | 317° |
| 2026-05-05 19:34 | 30.82989 | 30.59207 | 31285 ft | 467 kts | 317° |
| 2026-05-05 19:34 | 30.85364 | 30.56606 | 31608 ft | 470 kts | 317° |
| 2026-05-05 19:35 | 30.90158 | 30.51356 | 32002 ft | 479 kts | 317° |
| 2026-05-05 19:35 | 30.95098 | 30.45933 | 32001 ft | 496 kts | 317° |
| 2026-05-05 19:36 | 31.00096 | 30.40432 | 32000 ft | 497 kts | 317° |
| 2026-05-05 19:36 | 31.05120 | 30.34887 | 31998 ft | 497 kts | 316° |
| 2026-05-05 19:37 | 31.09322 | 30.28511 | 31999 ft | 497 kts | 299° |
| 2026-05-05 19:37 | 31.10716 | 30.24841 | 32248 ft | 493 kts | 291° |
| 2026-05-05 19:37 | 31.11277 | 30.23052 | 32616 ft | 487 kts | 290° |
| 2026-05-05 19:37 | 31.12358 | 30.19363 | 33599 ft | 473 kts | 289° |
| 2026-05-05 19:38 | 31.13361 | 30.15744 | 34284 ft | 465 kts | 288° |
| 2026-05-05 19:38 | 31.14303 | 30.12277 | 35598 ft | 413 kts | 282° |
| 2026-05-05 19:38 | 31.15139 | 30.09258 | 37833 ft | 368 kts | 281° |
| 2026-05-05 19:38 | 31.15912 | 30.06586 | 39659 ft | 328 kts | 281° |
| 2026-05-05 19:39 | 31.16659 | 30.04230 | 41084 ft | 293 kts | 285° |
| 2026-05-05 19:39 | 31.17384 | 30.02129 | 42003 ft | 269 kts | 290° |
| 2026-05-05 19:39 | 31.18205 | 30.00102 | 41363 ft | 292 kts | 293° |
| 2026-05-05 19:39 | 31.19296 | 29.97938 | 40427 ft | 326 kts | 297° |
| 2026-05-05 19:40 | 31.20485 | 29.95742 | 40913 ft | 311 kts | 299° |
| 2026-05-05 19:40 | 31.21665 | 29.93716 | 41529 ft | 295 kts | 301° |
| 2026-05-05 19:40 | 31.22922 | 29.91765 | 40667 ft | 320 kts | 303° |
| 2026-05-05 19:40 | 31.24512 | 29.89553 | 38425 ft | 389 kts | 303° |
| 2026-05-05 19:41 | 31.26231 | 29.86873 | 37140 ft | 434 kts | 312° |
| 2026-05-05 19:41 | 31.28735 | 29.84760 | 36884 ft | 449 kts | 328° |
| 2026-05-05 19:41 | 31.31667 | 29.83408 | 36883 ft | 459 kts | 339° |
| 2026-05-05 19:42 | 31.37844 | 29.81492 | 36983 ft | 451 kts | 332° |
| 2026-05-05 19:42 | 31.40564 | 29.79909 | 37629 ft | 433 kts | 324° |
| 2026-05-05 19:42 | 31.43011 | 29.77950 | 38200 ft | 420 kts | 316° |
| 2026-05-05 19:42 | 31.45137 | 29.75654 | 38519 ft | 412 kts | 309° |
| 2026-05-05 19:43 | 31.46912 | 29.73048 | 38734 ft | 408 kts | 301° |
| 2026-05-05 19:43 | 31.48333 | 29.70192 | 38942 ft | 405 kts | 295° |
| 2026-05-05 19:43 | 31.49595 | 29.67238 | 39146 ft | 405 kts | 294° |
| 2026-05-05 19:43 | 31.50787 | 29.64249 | 39346 ft | 405 kts | 293° |
| 2026-05-05 19:44 | 31.51952 | 29.61243 | 39545 ft | 405 kts | 292° |
| 2026-05-05 19:44 | 31.53112 | 29.58235 | 39740 ft | 405 kts | 292° |
| 2026-05-05 19:44 | 31.54280 | 29.55222 | 39920 ft | 406 kts | 293° |
| 2026-05-05 19:44 | 31.55458 | 29.52213 | 40056 ft | 407 kts | 293° |
| 2026-05-05 19:45 | 31.56650 | 29.49190 | 40103 ft | 411 kts | 293° |
| 2026-05-05 19:45 | 31.59090 | 29.43049 | 40102 ft | 419 kts | 293° |
| 2026-05-05 19:46 | 31.61585 | 29.36777 | 40102 ft | 428 kts | 293° |
| 2026-05-05 19:46 | 31.64102 | 29.30437 | 40101 ft | 433 kts | 293° |
| 2026-05-05 19:47 | 31.66640 | 29.24022 | 40100 ft | 432 kts | 293° |
| 2026-05-05 19:47 | 31.69168 | 29.17610 | 40101 ft | 433 kts | 293° |
| 2026-05-05 19:48 | 31.71766 | 29.11224 | 40104 ft | 434 kts | 297° |
| 2026-05-05 19:48 | 31.75374 | 29.05484 | 40110 ft | 442 kts | 311° |
| 2026-05-05 19:49 | 31.79988 | 29.00656 | 40109 ft | 445 kts | 316° |
| 2026-05-05 19:49 | 31.84765 | 28.96082 | 40106 ft | 442 kts | 317° |
| 2026-05-05 19:50 | 31.89459 | 28.91632 | 40107 ft | 425 kts | 317° |
| 2026-05-05 19:50 | 31.94027 | 28.87244 | 40110 ft | 423 kts | 316° |
| 2026-05-05 19:51 | 31.98572 | 28.82844 | 40110 ft | 422 kts | 316° |
| 2026-05-05 19:51 | 32.03080 | 28.78472 | 40110 ft | 422 kts | 317° |
| 2026-05-05 19:52 | 32.07610 | 28.74076 | 40109 ft | 421 kts | 317° |
| 2026-05-05 19:52 | 32.12129 | 28.69688 | 40110 ft | 420 kts | 317° |
| 2026-05-05 19:53 | 32.16644 | 28.65298 | 40110 ft | 420 kts | 317° |
| 2026-05-05 19:53 | 32.21151 | 28.60910 | 40110 ft | 420 kts | 317° |
| 2026-05-05 19:54 | 32.25629 | 28.56544 | 40110 ft | 420 kts | 317° |
| 2026-05-05 19:54 | 32.30136 | 28.52144 | 40110 ft | 420 kts | 317° |
| 2026-05-05 19:55 | 32.34640 | 28.47739 | 40109 ft | 420 kts | 317° |
| 2026-05-05 19:55 | 32.39139 | 28.43336 | 40109 ft | 420 kts | 317° |
| 2026-05-05 19:56 | 32.43640 | 28.38926 | 40109 ft | 420 kts | 317° |
| 2026-05-05 19:56 | 32.48141 | 28.34508 | 40110 ft | 420 kts | 317° |
| 2026-05-05 19:57 | 32.52642 | 28.30085 | 40110 ft | 420 kts | 317° |
| 2026-05-05 19:57 | 32.57142 | 28.25657 | 40110 ft | 420 kts | 317° |
| 2026-05-05 19:58 | 32.61618 | 28.21246 | 40110 ft | 420 kts | 317° |
| 2026-05-05 19:58 | 32.66113 | 28.16810 | 40109 ft | 420 kts | 317° |
| 2026-05-05 19:59 | 32.70602 | 28.12374 | 40110 ft | 420 kts | 317° |
| 2026-05-05 19:59 | 32.75099 | 28.07928 | 40101 ft | 420 kts | 317° |
| 2026-05-05 20:00 | 32.79595 | 28.03477 | 40100 ft | 420 kts | 317° |
| 2026-05-05 20:00 | 32.84088 | 27.99020 | 40101 ft | 419 kts | 317° |
| 2026-05-05 20:01 | 32.88562 | 27.94574 | 40100 ft | 419 kts | 317° |
| 2026-05-05 20:01 | 32.92997 | 27.90159 | 40100 ft | 418 kts | 317° |
| 2026-05-05 20:02 | 32.97459 | 27.85712 | 40101 ft | 418 kts | 317° |
| 2026-05-05 20:02 | 33.01915 | 27.81269 | 40101 ft | 418 kts | 317° |
| 2026-05-05 20:03 | 33.06375 | 27.76816 | 40100 ft | 418 kts | 317° |
| 2026-05-05 20:03 | 33.10832 | 27.72359 | 40100 ft | 418 kts | 317° |
| 2026-05-05 20:04 | 33.15282 | 27.67899 | 40093 ft | 418 kts | 317° |
| 2026-05-05 20:04 | 33.19732 | 27.63434 | 40091 ft | 418 kts | 317° |
| 2026-05-05 20:05 | 33.24191 | 27.58956 | 40092 ft | 418 kts | 317° |
| 2026-05-05 20:05 | 33.28615 | 27.54508 | 40091 ft | 418 kts | 317° |
| 2026-05-05 20:06 | 33.33093 | 27.49997 | 40091 ft | 418 kts | 317° |
| 2026-05-05 20:06 | 33.37509 | 27.45543 | 40091 ft | 418 kts | 317° |
| 2026-05-05 20:07 | 33.41950 | 27.41058 | 40090 ft | 418 kts | 317° |
| 2026-05-05 20:07 | 33.46398 | 27.36562 | 40091 ft | 417 kts | 317° |
| 2026-05-05 20:08 | 33.50833 | 27.32072 | 40087 ft | 417 kts | 317° |
| 2026-05-05 20:08 | 33.55269 | 27.27573 | 40082 ft | 418 kts | 317° |
| 2026-05-05 20:09 | 33.59707 | 27.23066 | 40081 ft | 418 kts | 317° |
| 2026-05-05 20:09 | 33.64151 | 27.18546 | 40083 ft | 418 kts | 317° |
| 2026-05-05 20:10 | 33.68583 | 27.14035 | 40081 ft | 417 kts | 317° |
| 2026-05-05 20:10 | 33.72976 | 27.09555 | 40091 ft | 417 kts | 317° |
| 2026-05-05 20:11 | 33.77406 | 27.05030 | 40091 ft | 418 kts | 317° |
| 2026-05-05 20:11 | 33.81835 | 27.00501 | 40092 ft | 418 kts | 317° |
| 2026-05-05 20:12 | 33.86261 | 26.95968 | 40091 ft | 417 kts | 317° |
| 2026-05-05 20:12 | 33.90685 | 26.91431 | 40091 ft | 417 kts | 317° |
| 2026-05-05 20:13 | 33.95105 | 26.86891 | 40091 ft | 418 kts | 317° |
| 2026-05-05 20:13 | 33.99502 | 26.82374 | 40091 ft | 417 kts | 318° |
| 2026-05-05 20:14 | 34.04042 | 26.78003 | 40091 ft | 418 kts | 321° |
| 2026-05-05 20:14 | 34.08678 | 26.73745 | 40091 ft | 419 kts | 321° |
| 2026-05-05 20:15 | 34.13320 | 26.69481 | 40091 ft | 419 kts | 321° |
| 2026-05-05 20:15 | 34.17940 | 26.65201 | 40091 ft | 418 kts | 321° |
| 2026-05-05 20:16 | 34.22558 | 26.60900 | 40091 ft | 418 kts | 321° |
| 2026-05-05 20:16 | 34.27165 | 26.56600 | 40091 ft | 418 kts | 321° |
| 2026-05-05 20:17 | 34.31752 | 26.52313 | 40091 ft | 418 kts | 321° |
| 2026-05-05 20:17 | 34.36356 | 26.48007 | 40091 ft | 418 kts | 321° |
| 2026-05-05 20:18 | 34.40973 | 26.43682 | 40091 ft | 418 kts | 320° |
| 2026-05-05 20:18 | 34.45572 | 26.39367 | 40091 ft | 418 kts | 321° |
| 2026-05-05 20:19 | 34.50169 | 26.35049 | 40091 ft | 418 kts | 321° |
| 2026-05-05 20:19 | 34.54766 | 26.30725 | 40091 ft | 418 kts | 321° |
| 2026-05-05 20:20 | 34.59361 | 26.26395 | 40092 ft | 418 kts | 321° |
| 2026-05-05 20:20 | 34.63927 | 26.22087 | 40091 ft | 418 kts | 321° |
| 2026-05-05 20:21 | 34.68519 | 26.17748 | 40091 ft | 418 kts | 321° |
| 2026-05-05 20:21 | 34.73112 | 26.13402 | 40092 ft | 419 kts | 321° |
| 2026-05-05 20:22 | 34.77715 | 26.09040 | 40092 ft | 419 kts | 320° |
| 2026-05-05 20:22 | 34.81528 | 26.05422 | 40091 ft | 418 kts | 320° |
| 2026-05-05 20:23 | 34.86117 | 26.01062 | 40091 ft | 418 kts | 321° |
| 2026-05-05 20:23 | 34.90703 | 25.96699 | 40092 ft | 417 kts | 321° |
| 2026-05-05 20:24 | 34.95271 | 25.92346 | 40091 ft | 416 kts | 321° |
| 2026-05-05 20:24 | 34.99830 | 25.87995 | 40093 ft | 416 kts | 321° |
| 2026-05-05 20:25 | 35.04380 | 25.83646 | 40098 ft | 416 kts | 321° |
| 2026-05-05 20:25 | 35.08934 | 25.79288 | 40096 ft | 416 kts | 321° |
| 2026-05-05 20:26 | 35.13491 | 25.74920 | 40101 ft | 415 kts | 321° |
| 2026-05-05 20:26 | 35.18002 | 25.70589 | 40100 ft | 415 kts | 321° |
| 2026-05-05 20:27 | 35.22549 | 25.66218 | 40101 ft | 416 kts | 321° |
| 2026-05-05 20:27 | 35.27088 | 25.61847 | 40098 ft | 416 kts | 321° |
| 2026-05-05 20:28 | 35.31640 | 25.57458 | 40101 ft | 416 kts | 321° |
| 2026-05-05 20:28 | 35.36186 | 25.53068 | 40100 ft | 416 kts | 321° |
| 2026-05-05 20:29 | 35.40728 | 25.48676 | 40101 ft | 415 kts | 321° |
| 2026-05-05 20:29 | 35.45262 | 25.44286 | 40100 ft | 415 kts | 320° |
| 2026-05-05 20:30 | 35.49796 | 25.39889 | 40100 ft | 415 kts | 320° |
| 2026-05-05 20:30 | 35.54292 | 25.35523 | 40100 ft | 414 kts | 321° |
| 2026-05-05 20:31 | 35.58819 | 25.31120 | 40100 ft | 414 kts | 321° |
| 2026-05-05 20:31 | 35.63340 | 25.26715 | 40100 ft | 414 kts | 320° |
| 2026-05-05 20:32 | 35.67863 | 25.22303 | 40093 ft | 414 kts | 320° |
| 2026-05-05 20:32 | 35.72377 | 25.17891 | 40091 ft | 414 kts | 320° |
| 2026-05-05 20:33 | 35.76860 | 25.13505 | 40091 ft | 414 kts | 320° |
| 2026-05-05 20:33 | 35.81363 | 25.09094 | 40091 ft | 413 kts | 320° |
| 2026-05-05 20:34 | 35.85861 | 25.04679 | 40090 ft | 413 kts | 320° |
| 2026-05-05 20:34 | 35.90361 | 25.00255 | 40091 ft | 413 kts | 320° |
| 2026-05-05 20:35 | 35.94853 | 24.95833 | 40091 ft | 413 kts | 320° |
| 2026-05-05 20:35 | 35.99344 | 24.91408 | 40091 ft | 412 kts | 320° |
| 2026-05-05 20:36 | 36.03826 | 24.86983 | 40091 ft | 412 kts | 320° |
| 2026-05-05 20:36 | 36.08272 | 24.82586 | 40091 ft | 412 kts | 320° |
| 2026-05-05 20:37 | 36.12751 | 24.78149 | 40091 ft | 411 kts | 320° |
| 2026-05-05 20:37 | 36.17219 | 24.73719 | 40091 ft | 411 kts | 320° |
| 2026-05-05 20:38 | 36.21682 | 24.69287 | 40091 ft | 411 kts | 320° |
| 2026-05-05 20:38 | 36.26141 | 24.64852 | 40091 ft | 411 kts | 320° |
| 2026-05-05 20:39 | 36.30602 | 24.60407 | 40091 ft | 411 kts | 320° |
| 2026-05-05 20:39 | 36.35059 | 24.55961 | 40091 ft | 411 kts | 320° |
| 2026-05-05 20:40 | 36.39512 | 24.51510 | 40091 ft | 411 kts | 320° |
| 2026-05-05 20:40 | 36.43929 | 24.47089 | 40083 ft | 411 kts | 320° |
| 2026-05-05 20:41 | 36.48389 | 24.42618 | 40083 ft | 411 kts | 320° |
| 2026-05-05 20:41 | 36.52836 | 24.38154 | 40081 ft | 411 kts | 320° |
| 2026-05-05 20:42 | 36.57285 | 24.33681 | 40081 ft | 411 kts | 320° |
| 2026-05-05 20:42 | 36.61730 | 24.29207 | 40082 ft | 411 kts | 320° |
| 2026-05-05 20:43 | 36.66174 | 24.24724 | 40082 ft | 411 kts | 320° |
| 2026-05-05 20:43 | 36.70613 | 24.20240 | 40082 ft | 411 kts | 320° |
| 2026-05-05 20:44 | 36.75053 | 24.15749 | 40082 ft | 411 kts | 320° |
| 2026-05-05 20:44 | 36.79469 | 24.11277 | 40082 ft | 411 kts | 320° |
| 2026-05-05 20:45 | 36.86131 | 24.04515 | 40082 ft | 411 kts | 320° |
| 2026-05-05 20:45 | 36.90577 | 23.99993 | 40082 ft | 412 kts | 320° |
| 2026-05-05 20:46 | 36.95029 | 23.95460 | 40082 ft | 411 kts | 320° |
| 2026-05-05 20:46 | 36.99427 | 23.90972 | 40082 ft | 410 kts | 320° |
| 2026-05-05 20:47 | 37.03848 | 23.86455 | 40057 ft | 410 kts | 320° |
| 2026-05-05 20:47 | 37.08265 | 23.81935 | 40076 ft | 411 kts | 320° |
| 2026-05-05 20:48 | 37.12695 | 23.77395 | 40081 ft | 411 kts | 320° |
| 2026-05-05 20:48 | 37.17125 | 23.72848 | 40081 ft | 411 kts | 320° |
| 2026-05-05 20:49 | 37.21544 | 23.68305 | 40082 ft | 411 kts | 320° |
| 2026-05-05 20:49 | 37.25981 | 23.63736 | 40082 ft | 412 kts | 320° |
| 2026-05-05 20:50 | 37.30385 | 23.59194 | 40082 ft | 412 kts | 320° |
| 2026-05-05 20:50 | 37.34810 | 23.54623 | 40083 ft | 412 kts | 320° |
| 2026-05-05 20:51 | 37.39189 | 23.50093 | 40082 ft | 412 kts | 320° |
| 2026-05-05 20:51 | 37.43611 | 23.45512 | 40082 ft | 412 kts | 320° |
| 2026-05-05 20:52 | 37.48027 | 23.40927 | 40086 ft | 412 kts | 320° |
| 2026-05-05 20:52 | 37.52444 | 23.36336 | 40077 ft | 413 kts | 320° |
| 2026-05-05 20:53 | 37.56895 | 23.31702 | 40081 ft | 413 kts | 320° |
| 2026-05-05 20:53 | 37.61284 | 23.27127 | 40082 ft | 411 kts | 320° |
| 2026-05-05 20:54 | 37.65694 | 23.22523 | 40081 ft | 411 kts | 320° |
| 2026-05-05 20:54 | 37.70100 | 23.17915 | 40082 ft | 411 kts | 320° |
| 2026-05-05 20:55 | 37.74507 | 23.13297 | 40082 ft | 411 kts | 320° |
| 2026-05-05 20:55 | 37.78923 | 23.08683 | 40082 ft | 411 kts | 321° |
| 2026-05-05 20:56 | 37.83345 | 23.04107 | 40083 ft | 410 kts | 321° |
| 2026-05-05 20:56 | 37.87753 | 22.99515 | 40081 ft | 410 kts | 321° |
| 2026-05-05 20:57 | 37.92149 | 22.94900 | 40082 ft | 410 kts | 320° |
| 2026-05-05 20:57 | 37.96494 | 22.90207 | 40082 ft | 410 kts | 320° |
| 2026-05-05 20:58 | 38.00782 | 22.85446 | 40083 ft | 409 kts | 319° |
| 2026-05-05 20:58 | 38.05041 | 22.80693 | 40083 ft | 410 kts | 319° |
| 2026-05-05 20:59 | 38.09338 | 22.75911 | 40088 ft | 411 kts | 319° |
| 2026-05-05 20:59 | 38.13627 | 22.71110 | 40090 ft | 411 kts | 319° |
| 2026-05-05 21:00 | 38.17925 | 22.66321 | 40091 ft | 410 kts | 319° |
| 2026-05-05 21:00 | 38.22220 | 22.61542 | 40091 ft | 410 kts | 319° |
| 2026-05-05 21:01 | 38.26512 | 22.56749 | 40091 ft | 410 kts | 319° |
| 2026-05-05 21:01 | 38.30767 | 22.51970 | 40092 ft | 410 kts | 318° |
| 2026-05-05 21:02 | 38.35002 | 22.47101 | 40091 ft | 410 kts | 318° |
| 2026-05-05 21:02 | 38.39264 | 22.42252 | 40091 ft | 410 kts | 318° |
| 2026-05-05 21:03 | 38.43537 | 22.37436 | 40091 ft | 410 kts | 318° |
| 2026-05-05 21:03 | 38.47812 | 22.32618 | 40085 ft | 410 kts | 318° |
| 2026-05-05 21:04 | 38.52087 | 22.27788 | 40094 ft | 410 kts | 318° |
| 2026-05-05 21:04 | 38.56341 | 22.22979 | 40092 ft | 410 kts | 318° |
| 2026-05-05 21:05 | 38.60612 | 22.18149 | 40087 ft | 410 kts | 318° |
| 2026-05-05 21:05 | 38.64889 | 22.13313 | 40098 ft | 410 kts | 318° |
| 2026-05-05 21:06 | 38.68441 | 22.09288 | 40089 ft | 410 kts | 318° |
| 2026-05-05 21:06 | 38.72704 | 22.04439 | 40090 ft | 411 kts | 318° |
| 2026-05-05 21:07 | 38.76973 | 21.99572 | 40104 ft | 411 kts | 319° |
| 2026-05-05 21:07 | 38.81245 | 21.94698 | 40099 ft | 410 kts | 318° |
| 2026-05-05 21:08 | 38.85505 | 21.89821 | 40097 ft | 411 kts | 318° |
| 2026-05-05 21:08 | 38.89775 | 21.84932 | 40099 ft | 412 kts | 318° |
| 2026-05-05 21:09 | 38.94042 | 21.80046 | 40104 ft | 414 kts | 319° |
| 2026-05-05 21:09 | 38.98341 | 21.75112 | 40105 ft | 415 kts | 319° |
| 2026-05-05 21:10 | 39.02650 | 21.70146 | 40111 ft | 415 kts | 318° |
| 2026-05-05 21:10 | 39.06954 | 21.65171 | 40110 ft | 416 kts | 318° |
| 2026-05-05 21:11 | 39.11263 | 21.60190 | 40111 ft | 416 kts | 318° |
| 2026-05-05 21:11 | 39.15571 | 21.55192 | 40135 ft | 417 kts | 318° |
| 2026-05-05 21:12 | 39.19886 | 21.50177 | 40136 ft | 418 kts | 318° |
| 2026-05-05 21:12 | 39.24209 | 21.45150 | 40129 ft | 418 kts | 318° |
| 2026-05-05 21:13 | 39.28527 | 21.40126 | 40124 ft | 418 kts | 318° |
| 2026-05-05 21:13 | 39.32858 | 21.35083 | 40138 ft | 419 kts | 319° |
| 2026-05-05 21:14 | 39.37149 | 21.30077 | 40136 ft | 418 kts | 318° |
| 2026-05-05 21:14 | 39.41471 | 21.25023 | 40145 ft | 418 kts | 318° |
| 2026-05-05 21:15 | 39.45795 | 21.19959 | 40146 ft | 419 kts | 318° |
| 2026-05-05 21:15 | 39.50111 | 21.14893 | 40146 ft | 419 kts | 318° |
| 2026-05-05 21:16 | 39.54422 | 21.09811 | 40146 ft | 418 kts | 318° |
| 2026-05-05 21:16 | 39.58724 | 21.04729 | 40154 ft | 418 kts | 318° |
| 2026-05-05 21:17 | 39.63027 | 20.99641 | 40155 ft | 418 kts | 318° |
| 2026-05-05 21:17 | 39.67303 | 20.94581 | 40155 ft | 418 kts | 317° |
| 2026-05-05 21:18 | 39.71595 | 20.89498 | 40156 ft | 418 kts | 318° |
| 2026-05-05 21:18 | 39.75888 | 20.84405 | 40155 ft | 418 kts | 317° |
| 2026-05-05 21:19 | 39.80181 | 20.79303 | 40154 ft | 418 kts | 317° |
| 2026-05-05 21:19 | 39.84463 | 20.74202 | 40155 ft | 418 kts | 317° |
| 2026-05-05 21:20 | 39.88744 | 20.69090 | 40149 ft | 417 kts | 317° |
| 2026-05-05 21:20 | 39.93013 | 20.63984 | 40146 ft | 417 kts | 317° |
| 2026-05-05 21:21 | 39.97293 | 20.58864 | 40147 ft | 417 kts | 317° |
| 2026-05-05 21:21 | 40.01559 | 20.53751 | 40137 ft | 417 kts | 317° |
| 2026-05-05 21:22 | 40.05839 | 20.48633 | 40141 ft | 418 kts | 319° |
| 2026-05-05 21:22 | 40.10422 | 20.43964 | 40130 ft | 418 kts | 322° |
| 2026-05-05 21:23 | 40.15073 | 20.39455 | 40129 ft | 419 kts | 323° |
| 2026-05-05 21:23 | 40.19775 | 20.34938 | 40126 ft | 419 kts | 323° |
| 2026-05-05 21:24 | 40.24471 | 20.30415 | 40120 ft | 419 kts | 323° |
| 2026-05-05 21:24 | 40.29161 | 20.25873 | 40118 ft | 419 kts | 323° |
| 2026-05-05 21:25 | 40.33850 | 20.21317 | 40118 ft | 419 kts | 322° |
| 2026-05-05 21:25 | 40.38526 | 20.16757 | 40119 ft | 419 kts | 322° |
| 2026-05-05 21:26 | 40.43174 | 20.12220 | 40118 ft | 419 kts | 322° |
| 2026-05-05 21:26 | 40.47857 | 20.07647 | 40118 ft | 419 kts | 323° |
| 2026-05-05 21:27 | 40.52531 | 20.03081 | 40109 ft | 418 kts | 323° |
| 2026-05-05 21:27 | 40.57206 | 19.98506 | 40109 ft | 418 kts | 322° |
| 2026-05-05 21:28 | 40.61838 | 19.93956 | 40109 ft | 418 kts | 322° |
| 2026-05-05 21:28 | 40.66493 | 19.89378 | 40109 ft | 418 kts | 322° |
| 2026-05-05 21:29 | 40.71154 | 19.84791 | 40102 ft | 418 kts | 322° |
| 2026-05-05 21:29 | 40.75802 | 19.80206 | 40100 ft | 417 kts | 322° |
| 2026-05-05 21:30 | 40.80464 | 19.75601 | 40100 ft | 418 kts | 322° |
| 2026-05-05 21:30 | 40.85089 | 19.71019 | 40101 ft | 418 kts | 322° |
| 2026-05-05 21:31 | 40.89736 | 19.66399 | 40100 ft | 418 kts | 322° |
| 2026-05-05 21:31 | 40.94385 | 19.61770 | 40100 ft | 418 kts | 322° |
| 2026-05-05 21:32 | 40.99031 | 19.57143 | 40100 ft | 418 kts | 322° |
| 2026-05-05 21:32 | 41.03676 | 19.52509 | 40100 ft | 418 kts | 322° |
| 2026-05-05 21:33 | 41.08317 | 19.47867 | 40101 ft | 418 kts | 322° |
| 2026-05-05 21:33 | 41.12958 | 19.43218 | 40100 ft | 418 kts | 322° |
| 2026-05-05 21:34 | 41.17567 | 19.38590 | 40101 ft | 418 kts | 322° |
| 2026-05-05 21:34 | 41.22201 | 19.33928 | 40101 ft | 418 kts | 322° |
| 2026-05-05 21:35 | 41.26842 | 19.29257 | 40101 ft | 418 kts | 322° |
| 2026-05-05 21:35 | 41.31484 | 19.24581 | 40100 ft | 418 kts | 322° |
| 2026-05-05 21:36 | 41.36121 | 19.19895 | 40100 ft | 418 kts | 322° |
| 2026-05-05 21:36 | 41.40762 | 19.15194 | 40100 ft | 418 kts | 322° |
| 2026-05-05 21:37 | 41.45388 | 19.10500 | 40100 ft | 417 kts | 322° |
| 2026-05-05 21:37 | 41.49983 | 19.05826 | 40101 ft | 417 kts | 322° |
| 2026-05-05 21:38 | 41.54602 | 19.01127 | 40101 ft | 417 kts | 322° |
| 2026-05-05 21:38 | 41.59218 | 18.96418 | 40101 ft | 417 kts | 322° |
| 2026-05-05 21:39 | 41.63835 | 18.91698 | 40100 ft | 417 kts | 322° |
| 2026-05-05 21:39 | 41.68442 | 18.86979 | 40100 ft | 417 kts | 322° |
| 2026-05-05 21:40 | 41.73046 | 18.82254 | 40100 ft | 417 kts | 322° |
| 2026-05-05 21:40 | 41.77620 | 18.77553 | 40100 ft | 417 kts | 322° |
| 2026-05-05 21:41 | 41.82222 | 18.72814 | 40100 ft | 417 kts | 322° |
| 2026-05-05 21:41 | 41.86830 | 18.68064 | 40093 ft | 417 kts | 322° |
| 2026-05-05 21:42 | 41.91429 | 18.63315 | 40091 ft | 417 kts | 322° |
| 2026-05-05 21:42 | 41.96022 | 18.58560 | 40091 ft | 417 kts | 322° |
| 2026-05-05 21:43 | 42.00513 | 18.53641 | 40088 ft | 415 kts | 315° |
| 2026-05-05 21:43 | 42.04195 | 18.47668 | 40094 ft | 416 kts | 307° |
| 2026-05-05 21:44 | 42.07539 | 18.41310 | 40091 ft | 415 kts | 305° |
| 2026-05-05 21:44 | 42.10778 | 18.34939 | 40091 ft | 415 kts | 305° |
| 2026-05-05 21:45 | 42.14057 | 18.28489 | 40091 ft | 414 kts | 306° |
| 2026-05-05 21:45 | 42.17303 | 18.22129 | 40076 ft | 414 kts | 305° |
| 2026-05-05 21:46 | 42.20570 | 18.15726 | 40059 ft | 414 kts | 306° |
| 2026-05-05 21:46 | 42.23838 | 18.09311 | 40076 ft | 414 kts | 306° |
| 2026-05-05 21:47 | 42.27101 | 18.02891 | 40076 ft | 414 kts | 305° |
| 2026-05-05 21:47 | 42.30362 | 17.96460 | 40057 ft | 414 kts | 305° |
| 2026-05-05 21:48 | 42.33593 | 17.90067 | 40076 ft | 414 kts | 305° |
| 2026-05-05 21:48 | 42.36843 | 17.83626 | 40057 ft | 414 kts | 305° |
| 2026-05-05 21:49 | 42.40092 | 17.77178 | 40080 ft | 415 kts | 305° |
| 2026-05-05 21:49 | 42.43348 | 17.70706 | 40082 ft | 415 kts | 305° |
| 2026-05-05 21:50 | 42.46600 | 17.64228 | 40083 ft | 416 kts | 305° |
| 2026-05-05 21:50 | 42.49848 | 17.57734 | 40082 ft | 416 kts | 305° |
| 2026-05-05 21:51 | 42.53076 | 17.51261 | 40082 ft | 417 kts | 305° |
| 2026-05-05 21:51 | 42.55777 | 17.45833 | 40082 ft | 417 kts | 304° |
| 2026-05-05 21:52 | 42.60656 | 17.36009 | 40074 ft | 418 kts | 304° |
| 2026-05-05 21:53 | 42.63903 | 17.29459 | 40075 ft | 418 kts | 304° |
| 2026-05-05 21:53 | 42.67147 | 17.22899 | 40076 ft | 418 kts | 304° |
| 2026-05-05 21:54 | 42.70366 | 17.16374 | 40058 ft | 418 kts | 304° |
| 2026-05-05 21:54 | 42.73605 | 17.09797 | 40077 ft | 419 kts | 304° |
| 2026-05-05 21:55 | 42.76847 | 17.03203 | 40076 ft | 419 kts | 304° |
| 2026-05-05 21:55 | 42.80093 | 16.96585 | 40057 ft | 419 kts | 304° |
| 2026-05-05 21:56 | 42.83327 | 16.89974 | 40077 ft | 419 kts | 304° |
| 2026-05-05 21:56 | 42.86540 | 16.83393 | 40062 ft | 419 kts | 304° |
| 2026-05-05 21:57 | 42.89769 | 16.76763 | 40076 ft | 419 kts | 303° |
| 2026-05-05 21:57 | 42.92996 | 16.70128 | 40077 ft | 419 kts | 303° |
| 2026-05-05 21:58 | 42.96217 | 16.63487 | 40076 ft | 420 kts | 303° |
| 2026-05-05 21:58 | 42.99448 | 16.56812 | 40076 ft | 421 kts | 303° |
| 2026-05-05 21:59 | 43.02670 | 16.50140 | 40076 ft | 421 kts | 303° |
| 2026-05-05 21:59 | 43.05885 | 16.43463 | 40077 ft | 421 kts | 303° |
| 2026-05-05 22:00 | 43.09100 | 16.36765 | 40070 ft | 421 kts | 303° |
| 2026-05-05 22:00 | 43.12287 | 16.30112 | 40077 ft | 421 kts | 303° |
| 2026-05-05 22:01 | 43.15492 | 16.23410 | 40076 ft | 421 kts | 303° |
| 2026-05-05 22:01 | 43.18701 | 16.16685 | 40074 ft | 422 kts | 303° |
| 2026-05-05 22:02 | 43.21909 | 16.09948 | 40076 ft | 422 kts | 303° |
| 2026-05-05 22:02 | 43.25117 | 16.03200 | 40060 ft | 422 kts | 303° |
| 2026-05-05 22:03 | 43.28316 | 15.96456 | 40076 ft | 422 kts | 303° |
| 2026-05-05 22:03 | 43.31519 | 15.89688 | 40075 ft | 422 kts | 303° |
| 2026-05-05 22:04 | 43.34691 | 15.82968 | 40057 ft | 422 kts | 302° |
| 2026-05-05 22:04 | 43.37879 | 15.76192 | 40076 ft | 422 kts | 302° |
| 2026-05-05 22:05 | 43.41064 | 15.69414 | 40059 ft | 422 kts | 302° |
| 2026-05-05 22:05 | 43.44249 | 15.62620 | 40063 ft | 422 kts | 302° |
| 2026-05-05 22:06 | 43.47425 | 15.55825 | 40068 ft | 422 kts | 302° |
| 2026-05-05 22:06 | 43.50599 | 15.49015 | 40053 ft | 422 kts | 302° |
| 2026-05-05 22:07 | 43.53765 | 15.42210 | 40055 ft | 422 kts | 302° |
| 2026-05-05 22:07 | 43.56933 | 15.35389 | 40054 ft | 422 kts | 302° |
| 2026-05-05 22:08 | 43.60091 | 15.28574 | 40051 ft | 421 kts | 302° |
| 2026-05-05 22:08 | 43.63220 | 15.21801 | 40039 ft | 421 kts | 302° |
| 2026-05-05 22:09 | 43.66388 | 15.14928 | 40039 ft | 421 kts | 302° |
| 2026-05-05 22:09 | 43.69508 | 15.08146 | 40041 ft | 420 kts | 302° |
| 2026-05-05 22:10 | 43.72641 | 15.01320 | 40039 ft | 420 kts | 302° |
| 2026-05-05 22:10 | 43.75768 | 14.94493 | 40046 ft | 420 kts | 302° |
| 2026-05-05 22:11 | 43.78881 | 14.87679 | 40043 ft | 419 kts | 302° |
| 2026-05-05 22:11 | 43.81975 | 14.80899 | 40052 ft | 418 kts | 301° |
| 2026-05-05 22:12 | 43.85078 | 14.74074 | 40056 ft | 418 kts | 301° |
| 2026-05-05 22:12 | 43.88165 | 14.67267 | 40037 ft | 417 kts | 301° |
| 2026-05-05 22:13 | 43.91248 | 14.60453 | 40036 ft | 417 kts | 301° |
| 2026-05-05 22:13 | 43.94322 | 14.53637 | 40032 ft | 416 kts | 301° |
| 2026-05-05 22:14 | 43.97394 | 14.46810 | 40034 ft | 416 kts | 301° |
| 2026-05-05 22:14 | 44.00457 | 14.39988 | 40034 ft | 416 kts | 301° |
| 2026-05-05 22:15 | 44.03497 | 14.33202 | 40033 ft | 416 kts | 300° |
| 2026-05-05 22:15 | 44.06556 | 14.26360 | 40035 ft | 416 kts | 300° |
| 2026-05-05 22:16 | 44.09604 | 14.19531 | 40028 ft | 415 kts | 300° |
| 2026-05-05 22:16 | 44.12645 | 14.12695 | 40026 ft | 415 kts | 300° |
| 2026-05-05 22:17 | 44.15687 | 14.05850 | 40025 ft | 415 kts | 300° |
| 2026-05-05 22:17 | 44.18716 | 13.99020 | 40025 ft | 414 kts | 300° |
| 2026-05-05 22:18 | 44.21742 | 13.92176 | 40027 ft | 415 kts | 300° |
| 2026-05-05 22:18 | 44.24777 | 13.85296 | 40019 ft | 416 kts | 300° |
| 2026-05-05 22:19 | 44.27782 | 13.78465 | 40017 ft | 416 kts | 300° |
| 2026-05-05 22:19 | 44.30802 | 13.71578 | 40017 ft | 416 kts | 300° |
| 2026-05-05 22:20 | 44.33823 | 13.64674 | 40018 ft | 417 kts | 300° |
| 2026-05-05 22:20 | 44.36842 | 13.57758 | 40018 ft | 418 kts | 300° |
| 2026-05-05 22:21 | 44.39870 | 13.50809 | 40008 ft | 418 kts | 300° |
| 2026-05-05 22:21 | 44.42582 | 13.43604 | 40010 ft | 418 kts | 293° |
| 2026-05-05 22:22 | 44.44890 | 13.36196 | 40008 ft | 419 kts | 292° |
| 2026-05-05 22:22 | 44.47149 | 13.28669 | 40005 ft | 419 kts | 291° |
| 2026-05-05 22:23 | 44.49399 | 13.21119 | 40009 ft | 420 kts | 291° |
| 2026-05-05 22:23 | 44.51651 | 13.13564 | 40008 ft | 421 kts | 291° |
| 2026-05-05 22:24 | 44.53913 | 13.05970 | 40008 ft | 422 kts | 291° |
| 2026-05-05 22:24 | 44.56169 | 12.98375 | 40009 ft | 422 kts | 291° |
| 2026-05-05 22:25 | 44.58427 | 12.90753 | 40009 ft | 423 kts | 291° |
| 2026-05-05 22:25 | 44.60664 | 12.83178 | 39983 ft | 423 kts | 291° |
| 2026-05-05 22:26 | 44.62925 | 12.75502 | 39981 ft | 423 kts | 291° |
| 2026-05-05 22:26 | 44.65166 | 12.67864 | 39968 ft | 423 kts | 291° |
| 2026-05-05 22:27 | 44.67394 | 12.60276 | 39978 ft | 423 kts | 290° |
| 2026-05-05 22:27 | 44.69623 | 12.52634 | 39964 ft | 423 kts | 290° |
| 2026-05-05 22:28 | 44.71851 | 12.44969 | 39964 ft | 424 kts | 290° |
| 2026-05-05 22:28 | 44.74078 | 12.37283 | 39974 ft | 424 kts | 290° |
| 2026-05-05 22:29 | 44.76308 | 12.29582 | 39965 ft | 423 kts | 290° |
| 2026-05-05 22:29 | 44.78520 | 12.21903 | 39985 ft | 424 kts | 290° |
| 2026-05-05 22:30 | 44.80731 | 12.14208 | 39985 ft | 424 kts | 290° |
| 2026-05-05 22:30 | 44.82929 | 12.06546 | 39978 ft | 424 kts | 290° |
| 2026-05-05 22:31 | 44.85133 | 11.98831 | 39980 ft | 424 kts | 290° |
| 2026-05-05 22:31 | 44.87335 | 11.91096 | 39973 ft | 425 kts | 289° |
| 2026-05-05 22:32 | 44.89537 | 11.83340 | 39972 ft | 426 kts | 289° |
| 2026-05-05 22:32 | 44.91739 | 11.75568 | 39979 ft | 427 kts | 289° |
| 2026-05-05 22:33 | 44.93920 | 11.67845 | 39968 ft | 427 kts | 289° |
| 2026-05-05 22:33 | 44.96118 | 11.60057 | 39975 ft | 427 kts | 290° |
| 2026-05-05 22:34 | 44.98328 | 11.52266 | 39965 ft | 428 kts | 290° |
| 2026-05-05 22:34 | 45.00541 | 11.44449 | 39969 ft | 428 kts | 290° |
| 2026-05-05 22:35 | 45.02743 | 11.36607 | 39968 ft | 429 kts | 290° |
| 2026-05-05 22:35 | 45.04915 | 11.28793 | 39975 ft | 429 kts | 289° |
| 2026-05-05 22:36 | 45.07090 | 11.20911 | 39978 ft | 430 kts | 289° |
| 2026-05-05 22:36 | 45.09261 | 11.13031 | 39981 ft | 430 kts | 289° |
| 2026-05-05 22:37 | 45.11071 | 11.06473 | 39981 ft | 430 kts | 289° |
| 2026-05-05 22:37 | 45.13592 | 10.97279 | 39980 ft | 430 kts | 289° |
| 2026-05-05 22:38 | 45.15407 | 10.90632 | 39978 ft | 432 kts | 289° |
| 2026-05-05 22:38 | 45.17558 | 10.82728 | 39974 ft | 432 kts | 289° |
| 2026-05-05 22:39 | 45.19716 | 10.74765 | 39965 ft | 434 kts | 289° |
| 2026-05-05 22:39 | 45.21875 | 10.66778 | 39979 ft | 432 kts | 289° |
| 2026-05-05 22:40 | 45.24036 | 10.58777 | 39968 ft | 435 kts | 289° |
| 2026-05-05 22:40 | 45.26194 | 10.50742 | 39964 ft | 436 kts | 289° |
| 2026-05-05 22:41 | 45.28360 | 10.42702 | 39968 ft | 435 kts | 289° |
| 2026-05-05 22:41 | 45.30509 | 10.34648 | 39973 ft | 436 kts | 289° |
| 2026-05-05 22:42 | 45.32647 | 10.26645 | 39970 ft | 436 kts | 289° |
| 2026-05-05 22:42 | 45.34781 | 10.18573 | 39973 ft | 437 kts | 288° |
| 2026-05-05 22:43 | 45.36906 | 10.10493 | 39963 ft | 436 kts | 288° |
| 2026-05-05 22:43 | 45.39045 | 10.02360 | 39965 ft | 439 kts | 288° |
| 2026-05-05 22:44 | 45.41183 | 9.94199 | 39968 ft | 440 kts | 288° |
| 2026-05-05 22:44 | 45.43318 | 9.86023 | 39964 ft | 440 kts | 288° |
| 2026-05-05 22:45 | 45.45432 | 9.77907 | 39964 ft | 440 kts | 288° |
| 2026-05-05 22:45 | 45.47562 | 9.69715 | 39976 ft | 441 kts | 288° |
| 2026-05-05 22:46 | 45.49674 | 9.61543 | 39964 ft | 439 kts | 288° |
| 2026-05-05 22:46 | 45.51780 | 9.53397 | 39962 ft | 440 kts | 288° |
| 2026-05-05 22:47 | 45.53902 | 9.45195 | 39965 ft | 441 kts | 288° |
| 2026-05-05 22:47 | 45.55996 | 9.36977 | 39965 ft | 440 kts | 288° |
| 2026-05-05 22:48 | 45.58098 | 9.28742 | 39966 ft | 439 kts | 288° |
| 2026-05-05 22:48 | 45.60184 | 9.20541 | 39962 ft | 440 kts | 288° |
| 2026-05-05 22:49 | 45.62270 | 9.12370 | 39962 ft | 441 kts | 287° |
| 2026-05-05 22:49 | 45.64296 | 9.04098 | 39954 ft | 437 kts | 283° |
| 2026-05-05 22:50 | 45.65456 | 8.95592 | 39961 ft | 434 kts | 277° |
| 2026-05-05 22:50 | 45.66309 | 8.87088 | 39973 ft | 434 kts | 276° |
| 2026-05-05 22:51 | 45.67109 | 8.78501 | 39966 ft | 436 kts | 275° |
| 2026-05-05 22:51 | 45.67899 | 8.69906 | 39961 ft | 435 kts | 275° |
| 2026-05-05 22:52 | 45.68702 | 8.61302 | 39942 ft | 437 kts | 275° |
| 2026-05-05 22:52 | 45.69110 | 8.57011 | 39718 ft | 432 kts | 275° |
| 2026-05-05 22:52 | 45.69512 | 8.52760 | 39471 ft | 429 kts | 275° |
| 2026-05-05 22:52 | 45.69901 | 8.48596 | 39225 ft | 426 kts | 275° |
| 2026-05-05 22:53 | 45.70291 | 8.44399 | 38972 ft | 425 kts | 275° |
| 2026-05-05 22:53 | 45.70677 | 8.40218 | 38741 ft | 422 kts | 274° |
| 2026-05-05 22:53 | 45.71055 | 8.36075 | 38399 ft | 418 kts | 274° |
| 2026-05-05 22:53 | 45.71426 | 8.31969 | 37971 ft | 414 kts | 274° |
| 2026-05-05 22:54 | 45.71794 | 8.27873 | 37537 ft | 413 kts | 274° |
| 2026-05-05 22:54 | 45.72161 | 8.23806 | 37104 ft | 411 kts | 273° |
| 2026-05-05 22:54 | 45.72525 | 8.19764 | 36657 ft | 408 kts | 273° |
| 2026-05-05 22:54 | 45.72884 | 8.15754 | 36236 ft | 404 kts | 272° |
| 2026-05-05 22:55 | 45.73243 | 8.11769 | 35778 ft | 402 kts | 272° |
| 2026-05-05 22:55 | 45.73599 | 8.07819 | 35321 ft | 399 kts | 272° |
| 2026-05-05 22:55 | 45.73950 | 8.03889 | 34830 ft | 397 kts | 271° |
| 2026-05-05 22:55 | 45.74297 | 7.99981 | 34332 ft | 394 kts | 271° |
| 2026-05-05 22:56 | 45.74642 | 7.96095 | 33761 ft | 392 kts | 271° |
| 2026-05-05 22:56 | 45.74988 | 7.92230 | 33178 ft | 391 kts | 271° |
| 2026-05-05 22:56 | 45.75332 | 7.88372 | 32548 ft | 390 kts | 271° |
| 2026-05-05 22:56 | 45.75677 | 7.84526 | 31922 ft | 390 kts | 271° |
| 2026-05-05 22:57 | 45.76020 | 7.80664 | 31263 ft | 390 kts | 272° |
| 2026-05-05 22:57 | 45.76353 | 7.76868 | 30741 ft | 386 kts | 272° |
| 2026-05-05 22:57 | 45.76680 | 7.73080 | 30306 ft | 381 kts | 272° |
| 2026-05-05 22:57 | 45.77001 | 7.69332 | 29828 ft | 376 kts | 272° |
| 2026-05-05 22:58 | 45.77315 | 7.65643 | 29403 ft | 371 kts | 272° |
| 2026-05-05 22:58 | 45.77622 | 7.61989 | 28970 ft | 369 kts | 272° |
| 2026-05-05 22:58 | 45.77926 | 7.58321 | 28496 ft | 370 kts | 272° |
| 2026-05-05 22:58 | 45.78230 | 7.54653 | 28052 ft | 371 kts | 272° |
| 2026-05-05 22:59 | 45.78535 | 7.50987 | 27604 ft | 370 kts | 272° |
| 2026-05-05 22:59 | 45.78843 | 7.47325 | 27145 ft | 369 kts | 272° |
| 2026-05-05 22:59 | 45.79145 | 7.43687 | 26705 ft | 369 kts | 272° |
| 2026-05-05 22:59 | 45.79447 | 7.40039 | 26252 ft | 369 kts | 272° |
| 2026-05-05 23:00 | 45.80049 | 7.32745 | 25317 ft | 368 kts | 272° |
| 2026-05-05 23:00 | 45.80348 | 7.29110 | 24849 ft | 368 kts | 272° |
| 2026-05-05 23:00 | 45.80642 | 7.25519 | 24390 ft | 367 kts | 272° |
| 2026-05-05 23:01 | 45.80933 | 7.21890 | 23916 ft | 366 kts | 273° |
| 2026-05-05 23:01 | 45.81225 | 7.18259 | 23460 ft | 367 kts | 273° |
| 2026-05-05 23:01 | 45.81524 | 7.14621 | 22993 ft | 365 kts | 273° |
| 2026-05-05 23:01 | 45.81821 | 7.11012 | 22513 ft | 362 kts | 273° |
| 2026-05-05 23:02 | 45.82147 | 7.07447 | 22064 ft | 361 kts | 277° |
| 2026-05-05 23:02 | 45.82832 | 7.03969 | 21584 ft | 364 kts | 285° |
| 2026-05-05 23:02 | 45.83711 | 7.00564 | 21113 ft | 364 kts | 288° |
| 2026-05-05 23:02 | 45.84634 | 6.97250 | 20672 ft | 361 kts | 289° |
| 2026-05-05 23:03 | 45.85597 | 6.93876 | 20192 ft | 360 kts | 289° |
| 2026-05-05 23:03 | 45.86548 | 6.90574 | 19729 ft | 357 kts | 289° |
| 2026-05-05 23:03 | 45.87484 | 6.87337 | 19291 ft | 355 kts | 289° |
| 2026-05-05 23:03 | 45.88426 | 6.84076 | 18842 ft | 353 kts | 289° |
| 2026-05-05 23:04 | 45.89368 | 6.80834 | 18375 ft | 351 kts | 290° |
| 2026-05-05 23:04 | 45.90306 | 6.77607 | 17915 ft | 348 kts | 290° |
| 2026-05-05 23:04 | 45.91235 | 6.74406 | 17466 ft | 346 kts | 290° |
| 2026-05-05 23:04 | 45.92160 | 6.71223 | 17017 ft | 344 kts | 290° |
| 2026-05-05 23:05 | 45.93077 | 6.68055 | 16565 ft | 342 kts | 290° |
| 2026-05-05 23:05 | 45.93988 | 6.64907 | 16124 ft | 342 kts | 290° |
| 2026-05-05 23:05 | 45.94898 | 6.61755 | 15658 ft | 339 kts | 291° |
| 2026-05-05 23:05 | 45.95801 | 6.58623 | 15215 ft | 338 kts | 291° |
| 2026-05-05 23:06 | 45.96700 | 6.55510 | 14760 ft | 337 kts | 291° |
| 2026-05-05 23:06 | 45.97594 | 6.52419 | 14324 ft | 335 kts | 291° |
| 2026-05-05 23:06 | 45.98480 | 6.49338 | 13875 ft | 333 kts | 291° |
| 2026-05-05 23:06 | 45.99363 | 6.46259 | 13430 ft | 331 kts | 292° |
| 2026-05-05 23:07 | 46.00241 | 6.43192 | 12982 ft | 331 kts | 292° |
| 2026-05-05 23:07 | 46.01112 | 6.40148 | 12551 ft | 328 kts | 292° |
| 2026-05-05 23:07 | 46.01979 | 6.37112 | 12096 ft | 328 kts | 292° |
| 2026-05-05 23:07 | 46.02844 | 6.34080 | 11656 ft | 327 kts | 292° |
| 2026-05-05 23:08 | 46.03707 | 6.31057 | 11212 ft | 325 kts | 292° |
| 2026-05-05 23:08 | 46.04544 | 6.28117 | 10920 ft | 316 kts | 292° |
| 2026-05-05 23:08 | 46.05364 | 6.25226 | 10855 ft | 300 kts | 292° |
| 2026-05-05 23:08 | 46.06119 | 6.22551 | 10774 ft | 286 kts | 292° |
| 2026-05-05 23:09 | 46.06852 | 6.19942 | 10683 ft | 276 kts | 292° |
| 2026-05-05 23:09 | 46.07573 | 6.17375 | 10515 ft | 273 kts | 292° |
| 2026-05-05 23:09 | 46.08280 | 6.14832 | 10164 ft | 273 kts | 290° |
| 2026-05-05 23:09 | 46.08703 | 6.12204 | 9851 ft | 270 kts | 273° |
| 2026-05-05 23:10 | 46.08460 | 6.09532 | 9568 ft | 269 kts | 251° |
| 2026-05-05 23:10 | 46.07547 | 6.07222 | 9276 ft | 267 kts | 231° |
| 2026-05-05 23:10 | 46.06284 | 6.05240 | 8982 ft | 268 kts | 226° |
| 2026-05-05 23:10 | 46.04957 | 6.03349 | 8664 ft | 270 kts | 225° |
| 2026-05-05 23:11 | 46.03629 | 6.01483 | 8491 ft | 261 kts | 225° |
| 2026-05-05 23:11 | 46.02372 | 5.99701 | 8391 ft | 247 kts | 225° |
| 2026-05-05 23:11 | 46.01168 | 5.97989 | 8283 ft | 239 kts | 226° |
| 2026-05-05 23:11 | 45.99994 | 5.96324 | 8101 ft | 236 kts | 225° |
| 2026-05-05 23:12 | 45.98827 | 5.94653 | 7850 ft | 237 kts | 226° |
| 2026-05-05 23:12 | 45.97712 | 5.92954 | 7620 ft | 236 kts | 233° |
| 2026-05-05 23:12 | 45.96982 | 5.90846 | 7383 ft | 237 kts | 258° |
| 2026-05-05 23:12 | 45.97021 | 5.88488 | 7121 ft | 240 kts | 288° |
| 2026-05-05 23:13 | 45.97867 | 5.86421 | 6997 ft | 244 kts | 312° |
| 2026-05-05 23:13 | 45.99054 | 5.84650 | 6998 ft | 247 kts | 317° |
| 2026-05-05 23:13 | 46.00315 | 5.82955 | 7013 ft | 250 kts | 323° |
| 2026-05-05 23:13 | 46.01818 | 5.81857 | 6989 ft | 237 kts | 350° |
| 2026-05-05 23:14 | 46.03405 | 5.81943 | 6925 ft | 226 kts | 20° |
| 2026-05-05 23:14 | 46.04758 | 5.83087 | 6508 ft | 231 kts | 44° |
| 2026-05-05 23:14 | 46.05925 | 5.84743 | 6043 ft | 239 kts | 49° |
| 2026-05-05 23:14 | 46.07063 | 5.86484 | 5700 ft | 241 kts | 49° |
| 2026-05-05 23:15 | 46.08221 | 5.88236 | 5381 ft | 241 kts | 49° |
| 2026-05-05 23:15 | 46.09386 | 5.89978 | 5075 ft | 241 kts | 48° |
| 2026-05-05 23:15 | 46.10549 | 5.91698 | 4741 ft | 237 kts | 47° |
| 2026-05-05 23:15 | 46.11673 | 5.93346 | 4440 ft | 223 kts | 48° |
| 2026-05-05 23:16 | 46.12727 | 5.94875 | 4203 ft | 206 kts | 48° |
| 2026-05-05 23:16 | 46.13710 | 5.96297 | 3895 ft | 194 kts | 48° |
| 2026-05-05 23:16 | 46.14631 | 5.97628 | 3617 ft | 185 kts | 48° |
| 2026-05-05 23:16 | 46.15513 | 5.98897 | 3397 ft | 173 kts | 48° |
| 2026-05-05 23:17 | 46.16336 | 6.00090 | 3191 ft | 164 kts | 47° |
| 2026-05-05 23:17 | 46.17131 | 6.01234 | 2942 ft | 158 kts | 48° |
| 2026-05-05 23:17 | 46.17906 | 6.02358 | 2764 ft | 158 kts | 48° |
| 2026-05-05 23:17 | 46.18675 | 6.03479 | 2563 ft | 157 kts | 46° |
| 2026-05-05 23:18 | 46.19446 | 6.04593 | 2364 ft | 156 kts | 46° |
| 2026-05-05 23:18 | 46.20214 | 6.05712 | 2144 ft | 157 kts | 45° |
| 2026-05-05 23:18 | 46.20978 | 6.06835 | 1945 ft | 156 kts | 45° |
| 2026-05-05 23:18 | 46.21752 | 6.07916 | 1745 ft | 156 kts | 44° |
| 2026-05-05 23:19 | 46.22499 | 6.08987 | 1521 ft | 145 kts | 45° |
| 2026-05-05 23:19 | 46.23184 | 6.09990 | 1408 ft | 130 kts | 46° |
| 2026-05-05 23:19 | 46.23658 | 6.10749 | 1379 ft | 82 kts | 47° |
| 2026-05-05 23:19 | 46.23848 | 6.10993 | 1382 ft | 50 kts | 41° |
| 2026-05-05 23:20 | 46.23952 | 6.11133 | 1379 ft | 2 kts | 45° |
| 2026-05-05 23:20 | 46.24040 | 6.11245 | 1379 ft | 30 kts | 43° |
| 2026-05-05 23:20 | 46.24219 | 6.11506 | 1372 ft | 40 kts | 50° |
| 2026-05-05 23:20 | 46.24337 | 6.11839 | 1370 ft | 26 kts | 77° |
| 2026-05-05 23:21 | 46.24266 | 6.11943 | 1368 ft | 16 kts | 216° |
| 2026-05-05 23:21 | 46.24184 | 6.11797 | 1369 ft | 21 kts | 236° |
| 2026-05-05 23:21 | 46.24112 | 6.11676 | 1370 ft | 27 kts | 226° |
| 2026-05-05 23:21 | 46.23881 | 6.11345 | 1378 ft | 43 kts | 225° |
| 2026-05-05 23:22 | 46.23739 | 6.11131 | 1378 ft | 40 kts | 224° |
| 2026-05-05 23:22 | 46.23614 | 6.11084 | 1376 ft | 12 kts | 142° |
| 2026-05-05 23:22 | 46.23554 | 6.11130 | 1378 ft | 10 kts | 184° |
| 2026-05-05 23:22 | 46.23534 | 6.11107 | 1376 ft | 8 kts | 232° |
| 2026-05-05 23:23 | 46.23478 | 6.11042 | 1379 ft | 7 kts | 189° |
| 2026-05-05 23:23 | 46.23437 | 6.11090 | 1382 ft | 12 kts | 127° |
| 2026-05-05 23:23 | 46.23425 | 6.11113 | 1386 ft | 0 kts | 127° |